PWSweather.com
Personal Weather Stations
Station Observations
ILOMBARD30
LodiIT 26900

LodiIT 26900

Lat: 45.2993, Lon: 9.5207

Elevation: 255

Station Type: Davis Vantege Pro2 Plus 24h

http://www.meteo-iw2gob.it

High Low Average
Temperature 56.9°F13.8°C 38.0°F3.3°C 48.0°F8.9°C
Dew Point 37.5°F3.1°C 28.9°F-1.7°C 31.7°F-0.2°C
Winds 9.2 mph 14.8 kmh Calm Calm 3.0 mph SE4.8 kmh SE
Wind Gusts 12.7 mph20.4 kmh 2.3 mph3.7 kmh 5.0 mph8.0 kmh
Humidity 79% 36% 55%
Pressure 30.45 in1031.2 mb 30.32 in1026.8 mb -
Precipitation 0.00 in0.0 mm - -
Hour Temp Dew Point Humidity Winds Wind Gusts Pressure Precip Precip Rate Daily Precip Total
12:00 AM 43.2°F6.2°C 32.6°F0.3°C 66% 1.2 mph NE1.9 kmh NE 2.3 mph3.7 kmh 30.32 in1026.8 mb - 0.00 in0.0 mm 0.00 in0.0 mm
12:05 AM 43.2°F6.2°C 32.6°F0.3°C 66% 2.3 mph NE3.7 kmh NE 2.3 mph3.7 kmh 30.32 in1026.8 mb - 0.00 in0.0 mm 0.00 in0.0 mm
12:10 AM 43.2°F6.2°C 32.6°F0.3°C 66% 2.3 mph NE3.7 kmh NE 2.3 mph3.7 kmh 30.32 in1026.8 mb - 0.00 in0.0 mm 0.00 in0.0 mm
12:15 AM 43.2°F6.2°C 33.0°F0.6°C 67% 1.2 mph NE1.9 kmh NE 2.3 mph3.7 kmh 30.32 in1026.8 mb - 0.00 in0.0 mm 0.00 in0.0 mm
12:20 AM 43.1°F6.2°C 32.9°F0.5°C 67% 2.3 mph NE3.7 kmh NE 2.3 mph3.7 kmh 30.32 in1026.8 mb - 0.00 in0.0 mm 0.00 in0.0 mm
12:25 AM 43.0°F6.1°C 32.8°F0.4°C 67% 1.2 mph NE1.9 kmh NE 2.3 mph3.7 kmh 30.32 in1026.8 mb - 0.00 in0.0 mm 0.00 in0.0 mm
12:30 AM 43.0°F6.1°C 32.8°F0.4°C 67% 1.2 mph NE1.9 kmh NE 2.3 mph3.7 kmh 30.32 in1026.8 mb - 0.00 in0.0 mm 0.00 in0.0 mm
12:35 AM 43.0°F6.1°C 32.4°F0.2°C 66% 2.3 mph NE3.7 kmh NE 3.5 mph5.6 kmh 30.32 in1026.8 mb - 0.00 in0.0 mm 0.00 in0.0 mm
12:40 AM 43.2°F6.2°C 32.6°F0.3°C 66% 2.3 mph NE3.7 kmh NE 3.5 mph5.6 kmh 30.32 in1026.8 mb - 0.00 in0.0 mm 0.00 in0.0 mm
12:45 AM 43.5°F6.4°C 32.5°F0.3°C 65% 2.3 mph NE3.7 kmh NE 3.5 mph5.6 kmh 30.32 in1026.8 mb - 0.00 in0.0 mm 0.00 in0.0 mm
12:50 AM 43.8°F6.6°C 32.8°F0.4°C 65% 2.3 mph NE3.7 kmh NE 3.5 mph5.6 kmh 30.32 in1026.8 mb - 0.00 in0.0 mm 0.00 in0.0 mm
12:55 AM 43.9°F6.6°C 32.5°F0.3°C 64% 1.2 mph NE1.9 kmh NE 2.3 mph3.7 kmh 30.33 in1027.1 mb - 0.00 in0.0 mm 0.00 in0.0 mm
01:00 AM 43.9°F6.6°C 32.5°F0.3°C 64% 1.2 mph NE1.9 kmh NE 3.5 mph5.6 kmh 30.33 in1027.1 mb - 0.00 in0.0 mm 0.00 in0.0 mm
01:05 AM 44.0°F6.7°C 32.6°F0.3°C 64% 2.3 mph NE3.7 kmh NE 3.5 mph5.6 kmh 30.33 in1027.1 mb - 0.00 in0.0 mm 0.00 in0.0 mm
01:10 AM 43.9°F6.6°C 32.5°F0.3°C 64% 2.3 mph NE3.7 kmh NE 2.3 mph3.7 kmh 30.33 in1027.1 mb - 0.00 in0.0 mm 0.00 in0.0 mm
01:15 AM 43.9°F6.6°C 32.9°F0.5°C 65% 1.2 mph NE1.9 kmh NE 2.3 mph3.7 kmh 30.33 in1027.1 mb - 0.00 in0.0 mm 0.00 in0.0 mm
01:20 AM 43.8°F6.6°C 32.8°F0.4°C 65% 2.3 mph NE3.7 kmh NE 2.3 mph3.7 kmh 30.33 in1027.1 mb - 0.00 in0.0 mm 0.00 in0.0 mm
01:25 AM 43.6°F6.4°C 32.6°F0.3°C 65% 1.2 mph NE1.9 kmh NE 2.3 mph3.7 kmh 30.33 in1027.1 mb - 0.00 in0.0 mm 0.00 in0.0 mm
01:30 AM 43.5°F6.4°C 32.9°F0.5°C 66% 1.2 mph NE1.9 kmh NE 2.3 mph3.7 kmh 30.33 in1027.1 mb - 0.00 in0.0 mm 0.00 in0.0 mm
01:35 AM 43.4°F6.3°C 33.1°F0.6°C 67% 1.2 mph NE1.9 kmh NE 2.3 mph3.7 kmh 30.33 in1027.1 mb - 0.00 in0.0 mm 0.00 in0.0 mm
01:40 AM 43.2°F6.2°C 32.6°F0.3°C 66% 1.2 mph NE1.9 kmh NE 2.3 mph3.7 kmh 30.33 in1027.1 mb - 0.00 in0.0 mm 0.00 in0.0 mm
01:45 AM 43.1°F6.2°C 32.5°F0.3°C 66% 1.2 mph NE1.9 kmh NE 2.3 mph3.7 kmh 30.34 in1027.4 mb - 0.00 in0.0 mm 0.00 in0.0 mm
01:50 AM 43.0°F6.1°C 32.8°F0.4°C 67% 2.3 mph NE3.7 kmh NE 2.3 mph3.7 kmh 30.34 in1027.4 mb - 0.00 in0.0 mm 0.00 in0.0 mm
01:55 AM 42.9°F6.1°C 32.7°F0.4°C 67% 2.3 mph NE3.7 kmh NE 2.3 mph3.7 kmh 30.34 in1027.4 mb - 0.00 in0.0 mm 0.00 in0.0 mm
02:00 AM 42.7°F5.9°C 32.5°F0.3°C 67% 2.3 mph NE3.7 kmh NE 3.5 mph5.6 kmh 30.34 in1027.4 mb - 0.00 in0.0 mm 0.00 in0.0 mm
02:05 AM 42.5°F5.8°C 32.7°F0.4°C 68% 2.3 mph NE3.7 kmh NE 3.5 mph5.6 kmh 30.34 in1027.4 mb - 0.00 in0.0 mm 0.00 in0.0 mm
02:10 AM 42.4°F5.8°C 32.9°F0.5°C 69% 2.3 mph NE3.7 kmh NE 2.3 mph3.7 kmh 30.34 in1027.4 mb - 0.00 in0.0 mm 0.00 in0.0 mm
02:15 AM 42.2°F5.7°C 33.1°F0.6°C 70% 2.3 mph NE3.7 kmh NE 3.5 mph5.6 kmh 30.34 in1027.4 mb - 0.00 in0.0 mm 0.00 in0.0 mm
02:20 AM 42.1°F5.6°C 33.0°F0.6°C 70% 2.3 mph NE3.7 kmh NE 3.5 mph5.6 kmh 30.34 in1027.4 mb - 0.00 in0.0 mm 0.00 in0.0 mm
02:25 AM 41.9°F5.5°C 32.8°F0.4°C 70% 2.3 mph NE3.7 kmh NE 3.5 mph5.6 kmh 30.34 in1027.4 mb - 0.00 in0.0 mm 0.00 in0.0 mm
02:30 AM 41.8°F5.4°C 32.7°F0.4°C 70% 2.3 mph NE3.7 kmh NE 3.5 mph5.6 kmh 30.34 in1027.4 mb - 0.00 in0.0 mm 0.00 in0.0 mm
02:35 AM 41.6°F5.3°C 32.9°F0.5°C 71% 2.3 mph NE3.7 kmh NE 3.5 mph5.6 kmh 30.34 in1027.4 mb - 0.00 in0.0 mm 0.00 in0.0 mm
02:40 AM 41.5°F5.3°C 32.8°F0.4°C 71% 2.3 mph NE3.7 kmh NE 3.5 mph5.6 kmh 30.34 in1027.4 mb - 0.00 in0.0 mm 0.00 in0.0 mm
02:45 AM 41.4°F5.2°C 32.7°F0.4°C 71% 2.3 mph NE3.7 kmh NE 3.5 mph5.6 kmh 30.34 in1027.4 mb - 0.00 in0.0 mm 0.00 in0.0 mm
02:50 AM 41.3°F5.2°C 32.6°F0.3°C 71% 2.3 mph NE3.7 kmh NE 2.3 mph3.7 kmh 30.34 in1027.4 mb - 0.00 in0.0 mm 0.00 in0.0 mm
02:55 AM 41.3°F5.2°C 32.6°F0.3°C 71% 2.3 mph NE3.7 kmh NE 3.5 mph5.6 kmh 30.34 in1027.4 mb - 0.00 in0.0 mm 0.00 in0.0 mm
03:00 AM 41.2°F5.1°C 32.5°F0.3°C 71% 2.3 mph NE3.7 kmh NE 2.3 mph3.7 kmh 30.34 in1027.4 mb - 0.00 in0.0 mm 0.00 in0.0 mm
03:05 AM 41.2°F5.1°C 32.5°F0.3°C 71% 2.3 mph NE3.7 kmh NE 2.3 mph3.7 kmh 30.34 in1027.4 mb - 0.00 in0.0 mm 0.00 in0.0 mm
03:10 AM 41.3°F5.2°C 32.6°F0.3°C 71% 2.3 mph NE3.7 kmh NE 2.3 mph3.7 kmh 30.34 in1027.4 mb - 0.00 in0.0 mm 0.00 in0.0 mm
03:15 AM 41.4°F5.2°C 32.4°F0.2°C 70% 2.3 mph NE3.7 kmh NE 3.5 mph5.6 kmh 30.34 in1027.4 mb - 0.00 in0.0 mm 0.00 in0.0 mm
03:20 AM 41.5°F5.3°C 32.4°F0.2°C 70% 2.3 mph NE3.7 kmh NE 2.3 mph3.7 kmh 30.34 in1027.4 mb - 0.00 in0.0 mm 0.00 in0.0 mm
03:25 AM 41.5°F5.3°C 32.4°F0.2°C 70% 1.2 mph NE1.9 kmh NE 2.3 mph3.7 kmh 30.34 in1027.4 mb - 0.00 in0.0 mm 0.00 in0.0 mm
03:30 AM 41.5°F5.3°C 32.4°F0.2°C 70% 2.3 mph NE3.7 kmh NE 2.3 mph3.7 kmh 30.34 in1027.4 mb - 0.00 in0.0 mm 0.00 in0.0 mm
03:35 AM 41.5°F5.3°C 32.4°F0.2°C 70% 2.3 mph NE3.7 kmh NE 3.5 mph5.6 kmh 30.34 in1027.4 mb - 0.00 in0.0 mm 0.00 in0.0 mm
03:40 AM 41.5°F5.3°C 32.4°F0.2°C 70% 2.3 mph NE3.7 kmh NE 3.5 mph5.6 kmh 30.34 in1027.4 mb - 0.00 in0.0 mm 0.00 in0.0 mm
03:45 AM 41.3°F5.2°C 32.3°F0.2°C 70% 1.2 mph NE1.9 kmh NE 2.3 mph3.7 kmh 30.34 in1027.4 mb - 0.00 in0.0 mm 0.00 in0.0 mm
03:50 AM 41.2°F5.1°C 32.5°F0.3°C 71% 2.3 mph NE3.7 kmh NE 3.5 mph5.6 kmh 30.34 in1027.4 mb - 0.00 in0.0 mm 0.00 in0.0 mm
03:55 AM 41.0°F5.0°C 32.3°F0.2°C 71% 2.3 mph NE3.7 kmh NE 3.5 mph5.6 kmh 30.34 in1027.4 mb - 0.00 in0.0 mm 0.00 in0.0 mm
04:00 AM 40.8°F4.9°C 32.5°F0.3°C 72% 2.3 mph NE3.7 kmh NE 2.3 mph3.7 kmh 30.34 in1027.4 mb - 0.00 in0.0 mm 0.00 in0.0 mm
04:05 AM 40.7°F4.8°C 32.4°F0.2°C 72% 1.2 mph NE1.9 kmh NE 3.5 mph5.6 kmh 30.34 in1027.4 mb - 0.00 in0.0 mm 0.00 in0.0 mm
04:10 AM 40.6°F4.8°C 32.3°F0.2°C 72% 2.3 mph NE3.7 kmh NE 3.5 mph5.6 kmh 30.34 in1027.4 mb - 0.00 in0.0 mm 0.00 in0.0 mm
04:15 AM 40.6°F4.8°C 32.3°F0.2°C 72% 2.3 mph NE3.7 kmh NE 3.5 mph5.6 kmh 30.34 in1027.4 mb - 0.00 in0.0 mm 0.00 in0.0 mm
04:20 AM 40.6°F4.8°C 32.3°F0.2°C 72% 2.3 mph NE3.7 kmh NE 3.5 mph5.6 kmh 30.34 in1027.4 mb - 0.00 in0.0 mm 0.00 in0.0 mm
04:25 AM 40.7°F4.8°C 32.4°F0.2°C 72% 2.3 mph NE3.7 kmh NE 3.5 mph5.6 kmh 30.34 in1027.4 mb - 0.00 in0.0 mm 0.00 in0.0 mm
04:30 AM 40.6°F4.8°C 32.3°F0.2°C 72% 2.3 mph NE3.7 kmh NE 3.5 mph5.6 kmh 30.34 in1027.4 mb - 0.00 in0.0 mm 0.00 in0.0 mm
04:35 AM 40.6°F4.8°C 32.3°F0.2°C 72% 3.5 mph N5.6 kmh N 3.5 mph5.6 kmh 30.34 in1027.4 mb - 0.00 in0.0 mm 0.00 in0.0 mm
04:40 AM 40.5°F4.7°C 32.5°F0.3°C 73% 2.3 mph NNW3.7 kmh NNW 3.5 mph5.6 kmh 30.34 in1027.4 mb - 0.00 in0.0 mm 0.00 in0.0 mm
04:45 AM 40.5°F4.7°C 32.5°F0.3°C 73% 3.5 mph NNW5.6 kmh NNW 3.5 mph5.6 kmh 30.34 in1027.4 mb - 0.00 in0.0 mm 0.00 in0.0 mm
04:50 AM 40.4°F4.7°C 32.4°F0.2°C 73% 3.5 mph NNW5.6 kmh NNW 3.5 mph5.6 kmh 30.34 in1027.4 mb - 0.00 in0.0 mm 0.00 in0.0 mm
04:55 AM 40.3°F4.6°C 32.3°F0.2°C 73% 2.3 mph NNW3.7 kmh NNW 3.5 mph5.6 kmh 30.34 in1027.4 mb - 0.00 in0.0 mm 0.00 in0.0 mm
05:00 AM 40.3°F4.6°C 32.7°F0.4°C 74% 2.3 mph NNW3.7 kmh NNW 3.5 mph5.6 kmh 30.34 in1027.4 mb - 0.00 in0.0 mm 0.00 in0.0 mm
05:05 AM 40.2°F4.6°C 32.6°F0.3°C 74% 2.3 mph NNW3.7 kmh NNW 3.5 mph5.6 kmh 30.34 in1027.4 mb - 0.00 in0.0 mm 0.00 in0.0 mm
05:10 AM 40.2°F4.6°C 32.6°F0.3°C 74% 2.3 mph NNW3.7 kmh NNW 3.5 mph5.6 kmh 30.34 in1027.4 mb - 0.00 in0.0 mm 0.00 in0.0 mm
05:15 AM 40.1°F4.5°C 32.5°F0.3°C 74% 2.3 mph NNW3.7 kmh NNW 3.5 mph5.6 kmh 30.34 in1027.4 mb - 0.00 in0.0 mm 0.00 in0.0 mm
05:20 AM 40.1°F4.5°C 32.5°F0.3°C 74% 2.3 mph NNW3.7 kmh NNW 3.5 mph5.6 kmh 30.35 in1027.8 mb - 0.00 in0.0 mm 0.00 in0.0 mm
05:25 AM 40.0°F4.4°C 32.4°F0.2°C 74% 2.3 mph NNW3.7 kmh NNW 3.5 mph5.6 kmh 30.35 in1027.8 mb - 0.00 in0.0 mm 0.00 in0.0 mm
05:30 AM 39.9°F4.4°C 32.3°F0.2°C 74% 2.3 mph NNW3.7 kmh NNW 3.5 mph5.6 kmh 30.35 in1027.8 mb - 0.00 in0.0 mm 0.00 in0.0 mm
05:35 AM 39.8°F4.3°C 32.5°F0.3°C 75% 2.3 mph NNW3.7 kmh NNW 3.5 mph5.6 kmh 30.35 in1027.8 mb - 0.00 in0.0 mm 0.00 in0.0 mm
05:40 AM 39.7°F4.3°C 32.4°F0.2°C 75% 2.3 mph NNW3.7 kmh NNW 3.5 mph5.6 kmh 30.35 in1027.8 mb - 0.00 in0.0 mm 0.00 in0.0 mm
05:45 AM 39.6°F4.2°C 32.4°F0.2°C 75% 2.3 mph NNW3.7 kmh NNW 3.5 mph5.6 kmh 30.36 in1028.1 mb - 0.00 in0.0 mm 0.00 in0.0 mm
05:50 AM 39.5°F4.2°C 32.2°F0.1°C 75% 3.5 mph NNW5.6 kmh NNW 3.5 mph5.6 kmh 30.36 in1028.1 mb - 0.00 in0.0 mm 0.00 in0.0 mm
05:55 AM 39.2°F4.0°C 32.3°F0.2°C 76% 3.5 mph NNW5.6 kmh NNW 3.5 mph5.6 kmh 30.36 in1028.1 mb - 0.00 in0.0 mm 0.00 in0.0 mm
06:00 AM 39.0°F3.9°C 32.1°F0.1°C 76% 3.5 mph NNW5.6 kmh NNW 3.5 mph5.6 kmh 30.36 in1028.1 mb - 0.00 in0.0 mm 0.00 in0.0 mm
06:05 AM 38.8°F3.8°C 31.9°F-0.1°C 76% 3.5 mph NNW5.6 kmh NNW 3.5 mph5.6 kmh 30.36 in1028.1 mb - 0.00 in0.0 mm 0.00 in0.0 mm
06:10 AM 38.7°F3.7°C 32.1°F0.1°C 77% 3.5 mph NNW5.6 kmh NNW 4.6 mph7.4 kmh 30.36 in1028.1 mb - 0.00 in0.0 mm 0.00 in0.0 mm
06:15 AM 38.6°F3.7°C 32.0°F0.0°C 77% 3.5 mph NNW5.6 kmh NNW 3.5 mph5.6 kmh 30.36 in1028.1 mb - 0.00 in0.0 mm 0.00 in0.0 mm
06:20 AM 38.4°F3.6°C 31.8°F-0.1°C 77% 2.3 mph NNW3.7 kmh NNW 3.5 mph5.6 kmh 30.36 in1028.1 mb - 0.00 in0.0 mm 0.00 in0.0 mm
06:25 AM 38.3°F3.5°C 31.7°F-0.2°C 77% 2.3 mph NNW3.7 kmh NNW 2.3 mph3.7 kmh 30.36 in1028.1 mb - 0.00 in0.0 mm 0.00 in0.0 mm
06:30 AM 38.2°F3.4°C 31.6°F-0.2°C 77% 3.5 mph NNW5.6 kmh NNW 3.5 mph5.6 kmh 30.37 in1028.4 mb - 0.00 in0.0 mm 0.00 in0.0 mm
06:35 AM 38.2°F3.4°C 31.9°F-0.1°C 78% 1.2 mph NNW1.9 kmh NNW 2.3 mph3.7 kmh 30.37 in1028.4 mb - 0.00 in0.0 mm 0.00 in0.0 mm
06:40 AM 38.1°F3.4°C 31.8°F-0.1°C 78% 2.3 mph NNW3.7 kmh NNW 2.3 mph3.7 kmh 30.37 in1028.4 mb - 0.00 in0.0 mm 0.00 in0.0 mm
06:45 AM 38.0°F3.3°C 31.8°F-0.1°C 78% 2.3 mph NNW3.7 kmh NNW 3.5 mph5.6 kmh 30.38 in1028.8 mb - 0.00 in0.0 mm 0.00 in0.0 mm
06:50 AM 38.1°F3.4°C 31.8°F-0.1°C 78% 2.3 mph NNW3.7 kmh NNW 2.3 mph3.7 kmh 30.38 in1028.8 mb - 0.00 in0.0 mm 0.00 in0.0 mm
06:55 AM 38.2°F3.4°C 31.9°F-0.1°C 78% 1.2 mph NNW1.9 kmh NNW 2.3 mph3.7 kmh 30.38 in1028.8 mb - 0.00 in0.0 mm 0.00 in0.0 mm
07:00 AM 38.2°F3.4°C 31.9°F-0.1°C 78% 2.3 mph NNW3.7 kmh NNW 3.5 mph5.6 kmh 30.38 in1028.8 mb - 0.00 in0.0 mm 0.00 in0.0 mm
07:05 AM 38.4°F3.6°C 32.1°F0.1°C 78% 2.3 mph NNW3.7 kmh NNW 3.5 mph5.6 kmh 30.38 in1028.8 mb - 0.00 in0.0 mm 0.00 in0.0 mm
07:10 AM 38.5°F3.6°C 32.6°F0.3°C 79% 1.2 mph NNW1.9 kmh NNW 2.3 mph3.7 kmh 30.39 in1029.1 mb - 0.00 in0.0 mm 0.00 in0.0 mm
07:15 AM 38.8°F3.8°C 32.8°F0.4°C 79% 1.2 mph NNW1.9 kmh NNW 2.3 mph3.7 kmh 30.39 in1029.1 mb - 0.00 in0.0 mm 0.00 in0.0 mm
07:20 AM 38.9°F3.8°C 32.9°F0.5°C 79% 1.2 mph NE1.9 kmh NE 3.5 mph5.6 kmh 30.39 in1029.1 mb - 0.00 in0.0 mm 0.00 in0.0 mm
07:25 AM 39.3°F4.1°C 33.0°F0.6°C 78% 1.2 mph NE1.9 kmh NE 2.3 mph3.7 kmh 30.39 in1029.1 mb - 0.00 in0.0 mm 0.00 in0.0 mm
07:30 AM 39.7°F4.3°C 33.1°F0.6°C 77% 3.5 mph N5.6 kmh N 3.5 mph5.6 kmh 30.39 in1029.1 mb - 0.00 in0.0 mm 0.00 in0.0 mm
07:35 AM 40.1°F4.5°C 33.1°F0.6°C 76% 1.2 mph N1.9 kmh N 2.3 mph3.7 kmh 30.39 in1029.1 mb - 0.00 in0.0 mm 0.00 in0.0 mm
07:40 AM 40.2°F4.6°C 32.9°F0.5°C 75% 2.3 mph N3.7 kmh N 2.3 mph3.7 kmh 30.40 in1029.5 mb - 0.00 in0.0 mm 0.00 in0.0 mm
07:45 AM 40.6°F4.8°C 33.0°F0.6°C 74% 2.3 mph NNE3.7 kmh NNE 3.5 mph5.6 kmh 30.40 in1029.5 mb - 0.00 in0.0 mm 0.00 in0.0 mm
07:50 AM 40.8°F4.9°C 33.2°F0.7°C 74% 1.2 mph NNE1.9 kmh NNE 2.3 mph3.7 kmh 30.40 in1029.5 mb - 0.00 in0.0 mm 0.00 in0.0 mm
07:55 AM 40.9°F4.9°C 33.2°F0.7°C 74% 2.3 mph N3.7 kmh N 3.5 mph5.6 kmh 30.40 in1029.5 mb - 0.00 in0.0 mm 0.00 in0.0 mm
08:00 AM 40.8°F4.9°C 32.8°F0.4°C 73% 2.3 mph N3.7 kmh N 3.5 mph5.6 kmh 30.40 in1029.5 mb - 0.00 in0.0 mm 0.00 in0.0 mm
08:05 AM 41.1°F5.1°C 33.4°F0.8°C 74% 2.3 mph N3.7 kmh N 3.5 mph5.6 kmh 30.41 in1029.8 mb - 0.00 in0.0 mm 0.00 in0.0 mm
08:10 AM 41.4°F5.2°C 33.7°F0.9°C 74% 2.3 mph N3.7 kmh N 2.3 mph3.7 kmh 30.41 in1029.8 mb - 0.00 in0.0 mm 0.00 in0.0 mm
08:15 AM 41.8°F5.4°C 34.1°F1.2°C 74% 2.3 mph N3.7 kmh N 3.5 mph5.6 kmh 30.41 in1029.8 mb - 0.00 in0.0 mm 0.00 in0.0 mm
08:20 AM 42.2°F5.7°C 34.2°F1.2°C 73% 2.3 mph N3.7 kmh N 2.3 mph3.7 kmh 30.41 in1029.8 mb - 0.00 in0.0 mm 0.00 in0.0 mm
08:25 AM 42.7°F5.9°C 34.3°F1.3°C 72% 2.3 mph N3.7 kmh N 3.5 mph5.6 kmh 30.41 in1029.8 mb - 0.00 in0.0 mm 0.00 in0.0 mm
08:30 AM 43.1°F6.2°C 35.0°F1.7°C 73% 2.3 mph N3.7 kmh N 3.5 mph5.6 kmh 30.41 in1029.8 mb - 0.00 in0.0 mm 0.00 in0.0 mm
08:35 AM 43.4°F6.3°C 35.0°F1.7°C 72% 2.3 mph N3.7 kmh N 3.5 mph5.6 kmh 30.41 in1029.8 mb - 0.00 in0.0 mm 0.00 in0.0 mm
08:40 AM 44.0°F6.7°C 35.9°F2.2°C 73% 2.3 mph N3.7 kmh N 3.5 mph5.6 kmh 30.41 in1029.8 mb - 0.00 in0.0 mm 0.00 in0.0 mm
08:45 AM 44.6°F7.0°C 35.8°F2.1°C 71% 2.3 mph N3.7 kmh N 3.5 mph5.6 kmh 30.42 in1030.1 mb - 0.00 in0.0 mm 0.00 in0.0 mm
08:50 AM 45.1°F7.3°C 35.9°F2.2°C 70% 3.5 mph N5.6 kmh N 3.5 mph5.6 kmh 30.42 in1030.1 mb - 0.00 in0.0 mm 0.00 in0.0 mm
08:55 AM 45.6°F7.6°C 36.4°F2.4°C 70% 3.5 mph N5.6 kmh N 3.5 mph5.6 kmh 30.42 in1030.1 mb - 0.00 in0.0 mm 0.00 in0.0 mm
09:00 AM 46.0°F7.8°C 36.1°F2.3°C 68% 3.5 mph N5.6 kmh N 4.6 mph7.4 kmh 30.42 in1030.1 mb - 0.00 in0.0 mm 0.00 in0.0 mm
09:05 AM 46.5°F8.1°C 36.9°F2.7°C 69% 2.3 mph N3.7 kmh N 3.5 mph5.6 kmh 30.42 in1030.1 mb - 0.00 in0.0 mm 0.00 in0.0 mm
09:10 AM 47.1°F8.4°C 37.1°F2.8°C 68% 2.3 mph NNE3.7 kmh NNE 4.6 mph7.4 kmh 30.42 in1030.1 mb - 0.00 in0.0 mm 0.00 in0.0 mm
09:15 AM 48.0°F8.9°C 37.2°F2.9°C 66% 2.3 mph ENE3.7 kmh ENE 4.6 mph7.4 kmh 30.43 in1030.5 mb - 0.00 in0.0 mm 0.00 in0.0 mm
09:20 AM 48.8°F9.3°C 37.5°F3.1°C 65% 3.5 mph NE5.6 kmh NE 4.6 mph7.4 kmh 30.43 in1030.5 mb - 0.00 in0.0 mm 0.00 in0.0 mm
09:25 AM 49.1°F9.5°C 36.6°F2.6°C 62% 4.6 mph E7.4 kmh E 6.9 mph11.1 kmh 30.43 in1030.5 mb - 0.00 in0.0 mm 0.00 in0.0 mm
09:30 AM 49.4°F9.7°C 36.5°F2.5°C 61% 6.9 mph E11.1 kmh E 8.1 mph13.0 kmh 30.43 in1030.5 mb - 0.00 in0.0 mm 0.00 in0.0 mm
09:35 AM 49.7°F9.8°C 36.4°F2.4°C 60% 5.8 mph E9.3 kmh E 9.2 mph14.8 kmh 30.43 in1030.5 mb - 0.00 in0.0 mm 0.00 in0.0 mm
09:40 AM 50.1°F10.1°C 36.3°F2.4°C 59% 5.8 mph E9.3 kmh E 11.5 mph18.5 kmh 30.43 in1030.5 mb - 0.00 in0.0 mm 0.00 in0.0 mm
09:45 AM 50.7°F10.4°C 35.5°F1.9°C 56% 6.9 mph ESE11.1 kmh ESE 11.5 mph18.5 kmh 30.43 in1030.5 mb - 0.00 in0.0 mm 0.00 in0.0 mm
09:50 AM 51.1°F10.6°C 35.0°F1.7°C 54% 5.8 mph ESE9.3 kmh ESE 10.4 mph16.7 kmh 30.43 in1030.5 mb - 0.00 in0.0 mm 0.00 in0.0 mm
09:55 AM 51.4°F10.8°C 35.3°F1.8°C 54% 6.9 mph ESE11.1 kmh ESE 8.1 mph13.0 kmh 30.43 in1030.5 mb - 0.00 in0.0 mm 0.00 in0.0 mm
10:00 AM 51.7°F10.9°C 35.1°F1.7°C 53% 4.6 mph SE7.4 kmh SE 12.7 mph20.4 kmh 30.43 in1030.5 mb - 0.00 in0.0 mm 0.00 in0.0 mm
10:05 AM 51.6°F10.9°C 35.0°F1.7°C 53% 5.8 mph E9.3 kmh E 9.2 mph14.8 kmh 30.43 in1030.5 mb - 0.00 in0.0 mm 0.00 in0.0 mm
10:10 AM 51.7°F10.9°C 35.1°F1.7°C 53% 8.1 mph ESE13.0 kmh ESE 11.5 mph18.5 kmh 30.43 in1030.5 mb - 0.00 in0.0 mm 0.00 in0.0 mm
10:15 AM 51.9°F11.1°C 35.3°F1.8°C 53% 5.8 mph SE9.3 kmh SE 12.7 mph20.4 kmh 30.43 in1030.5 mb - 0.00 in0.0 mm 0.00 in0.0 mm
10:20 AM 52.0°F11.1°C 34.9°F1.6°C 52% 9.2 mph SE14.8 kmh SE 11.5 mph18.5 kmh 30.43 in1030.5 mb - 0.00 in0.0 mm 0.00 in0.0 mm
10:25 AM 52.0°F11.1°C 33.9°F1.1°C 50% 8.1 mph SE13.0 kmh SE 11.5 mph18.5 kmh 30.43 in1030.5 mb - 0.00 in0.0 mm 0.00 in0.0 mm
10:30 AM 51.7°F10.9°C 34.2°F1.2°C 51% 6.9 mph SSE11.1 kmh SSE 9.2 mph14.8 kmh 30.43 in1030.5 mb - 0.00 in0.0 mm 0.00 in0.0 mm
10:35 AM 51.9°F11.1°C 34.3°F1.3°C 51% 6.9 mph SE11.1 kmh SE 11.5 mph18.5 kmh 30.43 in1030.5 mb - 0.00 in0.0 mm 0.00 in0.0 mm
10:40 AM 52.2°F11.2°C 35.1°F1.7°C 52% 5.8 mph E9.3 kmh E 11.5 mph18.5 kmh 30.43 in1030.5 mb - 0.00 in0.0 mm 0.00 in0.0 mm
10:45 AM 52.4°F11.3°C 34.8°F1.6°C 51% 5.8 mph SE9.3 kmh SE 12.7 mph20.4 kmh 30.43 in1030.5 mb - 0.00 in0.0 mm 0.00 in0.0 mm
10:50 AM 52.7°F11.5°C 34.6°F1.4°C 50% 5.8 mph SE9.3 kmh SE 10.4 mph16.7 kmh 30.43 in1030.5 mb - 0.00 in0.0 mm 0.00 in0.0 mm
10:55 AM 52.8°F11.6°C 34.1°F1.2°C 49% 5.8 mph SE9.3 kmh SE 10.4 mph16.7 kmh 30.43 in1030.5 mb - 0.00 in0.0 mm 0.00 in0.0 mm
11:00 AM 52.4°F11.3°C 33.8°F1.0°C 49% 6.9 mph SE11.1 kmh SE 10.4 mph16.7 kmh 30.43 in1030.5 mb - 0.00 in0.0 mm 0.00 in0.0 mm
11:05 AM 53.0°F11.7°C 34.3°F1.3°C 49% 6.9 mph SE11.1 kmh SE 9.2 mph14.8 kmh 30.43 in1030.5 mb - 0.00 in0.0 mm 0.00 in0.0 mm
11:10 AM 53.3°F11.8°C 34.1°F1.2°C 48% 6.9 mph ENE11.1 kmh ENE 9.2 mph14.8 kmh 30.43 in1030.5 mb - 0.00 in0.0 mm 0.00 in0.0 mm
11:15 AM 53.4°F11.9°C 34.7°F1.5°C 49% 2.3 mph ESE3.7 kmh ESE 4.6 mph7.4 kmh 30.43 in1030.5 mb - 0.00 in0.0 mm 0.00 in0.0 mm
11:20 AM 53.2°F11.8°C 34.0°F1.1°C 48% 3.5 mph ESE5.6 kmh ESE 3.5 mph5.6 kmh 30.43 in1030.5 mb - 0.00 in0.0 mm 0.00 in0.0 mm
11:25 AM 53.4°F11.9°C 34.2°F1.2°C 48% 6.9 mph SE11.1 kmh SE 8.1 mph13.0 kmh 30.43 in1030.5 mb - 0.00 in0.0 mm 0.00 in0.0 mm
11:30 AM 53.2°F11.8°C 34.0°F1.1°C 48% 3.5 mph SSE5.6 kmh SSE 3.5 mph5.6 kmh 30.43 in1030.5 mb - 0.00 in0.0 mm 0.00 in0.0 mm
11:35 AM 54.0°F12.2°C 34.7°F1.5°C 48% 6.9 mph E11.1 kmh E 10.4 mph16.7 kmh 30.43 in1030.5 mb - 0.00 in0.0 mm 0.00 in0.0 mm
11:40 AM 54.0°F12.2°C 33.1°F0.6°C 45% 2.3 mph SSE3.7 kmh SSE 3.5 mph5.6 kmh 30.43 in1030.5 mb - 0.00 in0.0 mm 0.00 in0.0 mm
11:45 AM 54.5°F12.5°C 33.6°F0.9°C 45% 4.6 mph SE7.4 kmh SE 9.2 mph14.8 kmh 30.43 in1030.5 mb - 0.00 in0.0 mm 0.00 in0.0 mm
11:50 AM 53.7°F12.1°C 33.4°F0.8°C 46% 3.5 mph NNE5.6 kmh NNE 5.8 mph9.3 kmh 30.42 in1030.1 mb - 0.00 in0.0 mm 0.00 in0.0 mm
11:55 AM 54.2°F12.3°C 33.3°F0.7°C 45% 5.8 mph E9.3 kmh E 9.2 mph14.8 kmh 30.42 in1030.1 mb - 0.00 in0.0 mm 0.00 in0.0 mm
12:00 PM 54.4°F12.4°C 32.9°F0.5°C 44% 5.8 mph ESE9.3 kmh ESE 5.8 mph9.3 kmh 30.42 in1030.1 mb - 0.00 in0.0 mm 0.00 in0.0 mm
12:05 PM 54.3°F12.4°C 31.7°F-0.2°C 42% 3.5 mph ESE5.6 kmh ESE 6.9 mph11.1 kmh 30.42 in1030.1 mb - 0.00 in0.0 mm 0.00 in0.0 mm
12:10 PM 54.8°F12.7°C 32.7°F0.4°C 43% 4.6 mph S7.4 kmh S 8.1 mph13.0 kmh 30.42 in1030.1 mb - 0.00 in0.0 mm 0.00 in0.0 mm
12:15 PM 54.7°F12.6°C 32.0°F0.0°C 42% 6.9 mph SE11.1 kmh SE 10.4 mph16.7 kmh 30.42 in1030.1 mb - 0.00 in0.0 mm 0.00 in0.0 mm
12:20 PM 54.5°F12.5°C 31.9°F-0.1°C 42% 4.6 mph SE7.4 kmh SE 6.9 mph11.1 kmh 30.42 in1030.1 mb - 0.00 in0.0 mm 0.00 in0.0 mm
12:25 PM 54.9°F12.7°C 31.6°F-0.2°C 41% 5.8 mph SE9.3 kmh SE 6.9 mph11.1 kmh 30.42 in1030.1 mb - 0.00 in0.0 mm 0.00 in0.0 mm
12:30 PM 55.0°F12.8°C 31.1°F-0.5°C 40% 4.6 mph E7.4 kmh E 9.2 mph14.8 kmh 30.42 in1030.1 mb - 0.00 in0.0 mm 0.00 in0.0 mm
12:35 PM 54.9°F12.7°C 31.0°F-0.6°C 40% 3.5 mph NNE5.6 kmh NNE 4.6 mph7.4 kmh 30.42 in1030.1 mb - 0.00 in0.0 mm 0.00 in0.0 mm
12:40 PM 55.1°F12.8°C 31.2°F-0.4°C 40% 3.5 mph ENE5.6 kmh ENE 6.9 mph11.1 kmh 30.41 in1029.8 mb - 0.00 in0.0 mm 0.00 in0.0 mm
12:45 PM 55.4°F13.0°C 31.4°F-0.3°C 40% 5.8 mph ENE9.3 kmh ENE 10.4 mph16.7 kmh 30.41 in1029.8 mb - 0.00 in0.0 mm 0.00 in0.0 mm
12:50 PM 55.5°F13.1°C 30.9°F-0.6°C 39% 3.5 mph ESE5.6 kmh ESE 5.8 mph9.3 kmh 30.41 in1029.8 mb - 0.00 in0.0 mm 0.00 in0.0 mm
12:55 PM 54.5°F12.5°C 31.3°F-0.4°C 41% 2.3 mph ENE3.7 kmh ENE 5.8 mph9.3 kmh 30.41 in1029.8 mb - 0.00 in0.0 mm 0.00 in0.0 mm
01:00 PM 54.5°F12.5°C 31.3°F-0.4°C 41% 4.6 mph NE7.4 kmh NE 6.9 mph11.1 kmh 30.40 in1029.5 mb - 0.00 in0.0 mm 0.00 in0.0 mm
01:05 PM 55.1°F12.8°C 31.2°F-0.4°C 40% 5.8 mph ESE9.3 kmh ESE 8.1 mph13.0 kmh 30.40 in1029.5 mb - 0.00 in0.0 mm 0.00 in0.0 mm
01:10 PM 55.0°F12.8°C 31.1°F-0.5°C 40% 6.9 mph ESE11.1 kmh ESE 8.1 mph13.0 kmh 30.40 in1029.5 mb - 0.00 in0.0 mm 0.00 in0.0 mm
01:15 PM 54.9°F12.7°C 31.0°F-0.6°C 40% 2.3 mph E3.7 kmh E 4.6 mph7.4 kmh 30.40 in1029.5 mb - 0.00 in0.0 mm 0.00 in0.0 mm
01:20 PM 55.7°F13.2°C 31.7°F-0.2°C 40% 5.8 mph NE9.3 kmh NE 6.9 mph11.1 kmh 30.40 in1029.5 mb - 0.00 in0.0 mm 0.00 in0.0 mm
01:25 PM 55.2°F12.9°C 30.6°F-0.8°C 39% 2.3 mph ENE3.7 kmh ENE 3.5 mph5.6 kmh 30.39 in1029.1 mb - 0.00 in0.0 mm 0.00 in0.0 mm
01:30 PM 54.9°F12.7°C 31.0°F-0.6°C 40% 2.3 mph SE3.7 kmh SE 3.5 mph5.6 kmh 30.39 in1029.1 mb - 0.00 in0.0 mm 0.00 in0.0 mm
01:35 PM 55.5°F13.1°C 30.9°F-0.6°C 39% 3.5 mph SE5.6 kmh SE 6.9 mph11.1 kmh 30.39 in1029.1 mb - 0.00 in0.0 mm 0.00 in0.0 mm
01:40 PM 56.1°F13.4°C 31.4°F-0.3°C 39% 2.3 mph SE3.7 kmh SE 3.5 mph5.6 kmh 30.39 in1029.1 mb - 0.00 in0.0 mm 0.00 in0.0 mm
01:45 PM 56.3°F13.5°C 31.0°F-0.6°C 38% 6.9 mph E11.1 kmh E 9.2 mph14.8 kmh 30.39 in1029.1 mb - 0.00 in0.0 mm 0.00 in0.0 mm
01:50 PM 56.3°F13.5°C 30.3°F-0.9°C 37% 4.6 mph SE7.4 kmh SE 8.1 mph13.0 kmh 30.38 in1028.8 mb - 0.00 in0.0 mm 0.00 in0.0 mm
01:55 PM 56.0°F13.3°C 30.1°F-1.1°C 37% 3.5 mph SE5.6 kmh SE 9.2 mph14.8 kmh 30.38 in1028.8 mb - 0.00 in0.0 mm 0.00 in0.0 mm
02:00 PM 55.5°F13.1°C 30.3°F-0.9°C 38% 9.2 mph SE14.8 kmh SE 11.5 mph18.5 kmh 30.38 in1028.8 mb - 0.00 in0.0 mm 0.00 in0.0 mm
02:05 PM 55.2°F12.9°C 30.0°F-1.1°C 38% 3.5 mph E5.6 kmh E 4.6 mph7.4 kmh 30.38 in1028.8 mb - 0.00 in0.0 mm 0.00 in0.0 mm
02:10 PM 55.8°F13.2°C 30.6°F-0.8°C 38% 4.6 mph SE7.4 kmh SE 4.6 mph7.4 kmh 30.38 in1028.8 mb - 0.00 in0.0 mm 0.00 in0.0 mm
02:15 PM 55.7°F13.2°C 30.4°F-0.9°C 38% Calm Calm 2.3 mph3.7 kmh 30.38 in1028.8 mb - 0.00 in0.0 mm 0.00 in0.0 mm
02:20 PM 56.6°F13.7°C 30.6°F-0.8°C 37% 4.6 mph E7.4 kmh E 6.9 mph11.1 kmh 30.37 in1028.4 mb - 0.00 in0.0 mm 0.00 in0.0 mm
02:25 PM 56.0°F13.3°C 30.1°F-1.1°C 37% 5.8 mph E9.3 kmh E 6.9 mph11.1 kmh 30.37 in1028.4 mb - 0.00 in0.0 mm 0.00 in0.0 mm
02:30 PM 56.1°F13.4°C 29.5°F-1.4°C 36% 2.3 mph ESE3.7 kmh ESE 3.5 mph5.6 kmh 30.37 in1028.4 mb - 0.00 in0.0 mm 0.00 in0.0 mm
02:35 PM 55.9°F13.3°C 30.0°F-1.1°C 37% 1.2 mph ENE1.9 kmh ENE 4.6 mph7.4 kmh 30.37 in1028.4 mb - 0.00 in0.0 mm 0.00 in0.0 mm
02:40 PM 56.1°F13.4°C 30.2°F-1.0°C 37% 3.5 mph NE5.6 kmh NE 4.6 mph7.4 kmh 30.36 in1028.1 mb - 0.00 in0.0 mm 0.00 in0.0 mm
02:45 PM 56.5°F13.6°C 29.8°F-1.2°C 36% 1.2 mph E1.9 kmh E 2.3 mph3.7 kmh 30.36 in1028.1 mb - 0.00 in0.0 mm 0.00 in0.0 mm
02:50 PM 56.9°F13.8°C 30.2°F-1.0°C 36% 2.3 mph ESE3.7 kmh ESE 4.6 mph7.4 kmh 30.36 in1028.1 mb - 0.00 in0.0 mm 0.00 in0.0 mm
02:55 PM 56.2°F13.4°C 29.5°F-1.4°C 36% 4.6 mph SE7.4 kmh SE 6.9 mph11.1 kmh 30.36 in1028.1 mb - 0.00 in0.0 mm 0.00 in0.0 mm
03:00 PM 55.4°F13.0°C 28.9°F-1.7°C 36% 3.5 mph SE5.6 kmh SE 4.6 mph7.4 kmh 30.36 in1028.1 mb - 0.00 in0.0 mm 0.00 in0.0 mm
03:05 PM 56.2°F13.4°C 30.2°F-1.0°C 37% 1.2 mph SW1.9 kmh SW 2.3 mph3.7 kmh 30.36 in1028.1 mb - 0.00 in0.0 mm 0.00 in0.0 mm
03:10 PM 56.6°F13.7°C 29.9°F-1.2°C 36% 3.5 mph NE5.6 kmh NE 4.6 mph7.4 kmh 30.36 in1028.1 mb - 0.00 in0.0 mm 0.00 in0.0 mm
03:15 PM 56.2°F13.4°C 29.6°F-1.3°C 36% 3.5 mph N5.6 kmh N 4.6 mph7.4 kmh 30.36 in1028.1 mb - 0.00 in0.0 mm 0.00 in0.0 mm
03:20 PM 56.2°F13.4°C 29.6°F-1.3°C 36% 4.6 mph SE7.4 kmh SE 6.9 mph11.1 kmh 30.35 in1027.8 mb - 0.00 in0.0 mm 0.00 in0.0 mm
03:25 PM 56.6°F13.7°C 29.9°F-1.2°C 36% 3.5 mph SE5.6 kmh SE 4.6 mph7.4 kmh 30.35 in1027.8 mb - 0.00 in0.0 mm 0.00 in0.0 mm
03:30 PM 56.8°F13.8°C 30.1°F-1.1°C 36% 3.5 mph E5.6 kmh E 3.5 mph5.6 kmh 30.35 in1027.8 mb - 0.00 in0.0 mm 0.00 in0.0 mm
03:35 PM 56.2°F13.4°C 29.6°F-1.3°C 36% 2.3 mph E3.7 kmh E 3.5 mph5.6 kmh 30.35 in1027.8 mb - 0.00 in0.0 mm 0.00 in0.0 mm
03:40 PM 56.7°F13.7°C 30.7°F-0.7°C 37% 3.5 mph NNE5.6 kmh NNE 4.6 mph7.4 kmh 30.35 in1027.8 mb - 0.00 in0.0 mm 0.00 in0.0 mm
03:45 PM 56.2°F13.4°C 29.6°F-1.3°C 36% 3.5 mph N5.6 kmh N 3.5 mph5.6 kmh 30.35 in1027.8 mb - 0.00 in0.0 mm 0.00 in0.0 mm
03:50 PM 56.5°F13.6°C 30.5°F-0.8°C 37% 3.5 mph ESE5.6 kmh ESE 6.9 mph11.1 kmh 30.35 in1027.8 mb - 0.00 in0.0 mm 0.00 in0.0 mm
03:55 PM 56.4°F13.6°C 29.7°F-1.3°C 36% 2.3 mph NE3.7 kmh NE 3.5 mph5.6 kmh 30.35 in1027.8 mb - 0.00 in0.0 mm 0.00 in0.0 mm
04:00 PM 56.2°F13.4°C 30.9°F-0.6°C 38% 4.6 mph NE7.4 kmh NE 6.9 mph11.1 kmh 30.34 in1027.4 mb - 0.00 in0.0 mm 0.00 in0.0 mm
04:05 PM 56.6°F13.7°C 29.9°F-1.2°C 36% 4.6 mph NNE7.4 kmh NNE 6.9 mph11.1 kmh 30.35 in1027.8 mb - 0.00 in0.0 mm 0.00 in0.0 mm
04:10 PM 56.6°F13.7°C 30.0°F-1.1°C 36% 2.3 mph E3.7 kmh E 6.9 mph11.1 kmh 30.34 in1027.4 mb - 0.00 in0.0 mm 0.00 in0.0 mm
04:15 PM 56.6°F13.7°C 29.9°F-1.2°C 36% 4.6 mph NE7.4 kmh NE 6.9 mph11.1 kmh 30.34 in1027.4 mb - 0.00 in0.0 mm 0.00 in0.0 mm
04:20 PM 56.4°F13.6°C 29.8°F-1.2°C 36% 2.3 mph ESE3.7 kmh ESE 3.5 mph5.6 kmh 30.34 in1027.4 mb - 0.00 in0.0 mm 0.00 in0.0 mm
04:25 PM 56.6°F13.7°C 30.6°F-0.8°C 37% 3.5 mph E5.6 kmh E 4.6 mph7.4 kmh 30.34 in1027.4 mb - 0.00 in0.0 mm 0.00 in0.0 mm
04:30 PM 56.5°F13.6°C 29.8°F-1.2°C 36% 2.3 mph ENE3.7 kmh ENE 2.3 mph3.7 kmh 30.34 in1027.4 mb - 0.00 in0.0 mm 0.00 in0.0 mm
04:35 PM 56.5°F13.6°C 30.5°F-0.8°C 37% 1.2 mph E1.9 kmh E 3.5 mph5.6 kmh 30.34 in1027.4 mb - 0.00 in0.0 mm 0.00 in0.0 mm
04:40 PM 56.6°F13.7°C 29.9°F-1.2°C 36% 4.6 mph SE7.4 kmh SE 6.9 mph11.1 kmh 30.34 in1027.4 mb - 0.00 in0.0 mm 0.00 in0.0 mm
04:45 PM 56.6°F13.7°C 30.6°F-0.8°C 37% 3.5 mph SE5.6 kmh SE 3.5 mph5.6 kmh 30.34 in1027.4 mb - 0.00 in0.0 mm 0.00 in0.0 mm
04:50 PM 56.5°F13.6°C 30.5°F-0.8°C 37% 4.6 mph SE7.4 kmh SE 6.9 mph11.1 kmh 30.35 in1027.8 mb - 0.00 in0.0 mm 0.00 in0.0 mm
04:55 PM 56.3°F13.5°C 29.7°F-1.3°C 36% 1.2 mph E1.9 kmh E 3.5 mph5.6 kmh 30.34 in1027.4 mb - 0.00 in0.0 mm 0.00 in0.0 mm
05:00 PM 56.2°F13.4°C 29.5°F-1.4°C 36% 5.8 mph SE9.3 kmh SE 6.9 mph11.1 kmh 30.34 in1027.4 mb - 0.00 in0.0 mm 0.00 in0.0 mm
05:05 PM 55.9°F13.3°C 30.0°F-1.1°C 37% 2.3 mph SE3.7 kmh SE 3.5 mph5.6 kmh 30.34 in1027.4 mb - 0.00 in0.0 mm 0.00 in0.0 mm
05:10 PM 55.9°F13.3°C 29.3°F-1.5°C 36% 2.3 mph SSE3.7 kmh SSE 4.6 mph7.4 kmh 30.35 in1027.8 mb - 0.00 in0.0 mm 0.00 in0.0 mm
05:15 PM 56.0°F13.3°C 30.1°F-1.1°C 37% 4.6 mph ESE7.4 kmh ESE 9.2 mph14.8 kmh 30.34 in1027.4 mb - 0.00 in0.0 mm 0.00 in0.0 mm
05:20 PM 56.0°F13.3°C 30.7°F-0.7°C 38% 2.3 mph SE3.7 kmh SE 3.5 mph5.6 kmh 30.35 in1027.8 mb - 0.00 in0.0 mm 0.00 in0.0 mm
05:25 PM 55.9°F13.3°C 29.9°F-1.2°C 37% 4.6 mph SE7.4 kmh SE 6.9 mph11.1 kmh 30.34 in1027.4 mb - 0.00 in0.0 mm 0.00 in0.0 mm
05:30 PM 55.5°F13.1°C 29.0°F-1.7°C 36% 3.5 mph SE5.6 kmh SE 3.5 mph5.6 kmh 30.35 in1027.8 mb - 0.00 in0.0 mm 0.00 in0.0 mm
05:35 PM 55.5°F13.1°C 29.0°F-1.7°C 36% 3.5 mph SE5.6 kmh SE 4.6 mph7.4 kmh 30.34 in1027.4 mb - 0.00 in0.0 mm 0.00 in0.0 mm
05:40 PM 55.5°F13.1°C 29.6°F-1.3°C 37% 3.5 mph SE5.6 kmh SE 6.9 mph11.1 kmh 30.35 in1027.8 mb - 0.00 in0.0 mm 0.00 in0.0 mm
05:45 PM 55.4°F13.0°C 30.2°F-1.0°C 38% 4.6 mph SE7.4 kmh SE 6.9 mph11.1 kmh 30.35 in1027.8 mb - 0.00 in0.0 mm 0.00 in0.0 mm
05:50 PM 55.3°F12.9°C 30.7°F-0.7°C 39% 2.3 mph SE3.7 kmh SE 3.5 mph5.6 kmh 30.35 in1027.8 mb - 0.00 in0.0 mm 0.00 in0.0 mm
05:55 PM 55.1°F12.8°C 30.6°F-0.8°C 39% 3.5 mph SE5.6 kmh SE 3.5 mph5.6 kmh 30.35 in1027.8 mb - 0.00 in0.0 mm 0.00 in0.0 mm
06:00 PM 55.0°F12.8°C 31.1°F-0.5°C 40% 3.5 mph SE5.6 kmh SE 4.6 mph7.4 kmh 30.35 in1027.8 mb - 0.00 in0.0 mm 0.00 in0.0 mm
06:05 PM 54.8°F12.7°C 30.3°F-0.9°C 39% 3.5 mph SE5.6 kmh SE 3.5 mph5.6 kmh 30.35 in1027.8 mb - 0.00 in0.0 mm 0.00 in0.0 mm
06:10 PM 54.6°F12.6°C 30.8°F-0.7°C 40% 3.5 mph SE5.6 kmh SE 3.5 mph5.6 kmh 30.36 in1028.1 mb - 0.00 in0.0 mm 0.00 in0.0 mm
06:15 PM 54.4°F12.4°C 31.2°F-0.4°C 41% 2.3 mph SE3.7 kmh SE 3.5 mph5.6 kmh 30.36 in1028.1 mb - 0.00 in0.0 mm 0.00 in0.0 mm
06:20 PM 54.1°F12.3°C 30.9°F-0.6°C 41% 3.5 mph SE5.6 kmh SE 3.5 mph5.6 kmh 30.36 in1028.1 mb - 0.00 in0.0 mm 0.00 in0.0 mm
06:25 PM 53.9°F12.2°C 30.7°F-0.7°C 41% 3.5 mph SE5.6 kmh SE 3.5 mph5.6 kmh 30.36 in1028.1 mb - 0.00 in0.0 mm 0.00 in0.0 mm
06:30 PM 53.7°F12.1°C 30.5°F-0.8°C 41% 3.5 mph SE5.6 kmh SE 4.6 mph7.4 kmh 30.36 in1028.1 mb - 0.00 in0.0 mm 0.00 in0.0 mm
06:35 PM 53.5°F11.9°C 29.7°F-1.3°C 40% 2.3 mph SE3.7 kmh SE 3.5 mph5.6 kmh 30.36 in1028.1 mb - 0.00 in0.0 mm 0.00 in0.0 mm
06:40 PM 53.4°F11.9°C 29.6°F-1.3°C 40% 2.3 mph SE3.7 kmh SE 3.5 mph5.6 kmh 30.36 in1028.1 mb - 0.00 in0.0 mm 0.00 in0.0 mm
06:45 PM 53.2°F11.8°C 29.5°F-1.4°C 40% 2.3 mph SE3.7 kmh SE 3.5 mph5.6 kmh 30.37 in1028.4 mb - 0.00 in0.0 mm 0.00 in0.0 mm
06:50 PM 53.0°F11.7°C 29.3°F-1.5°C 40% 2.3 mph SE3.7 kmh SE 3.5 mph5.6 kmh 30.37 in1028.4 mb - 0.00 in0.0 mm 0.00 in0.0 mm
06:55 PM 52.8°F11.6°C 29.8°F-1.2°C 41% 2.3 mph SE3.7 kmh SE 3.5 mph5.6 kmh 30.37 in1028.4 mb - 0.00 in0.0 mm 0.00 in0.0 mm
07:00 PM 52.6°F11.4°C 29.6°F-1.3°C 41% 2.3 mph SE3.7 kmh SE 3.5 mph5.6 kmh 30.37 in1028.4 mb - 0.00 in0.0 mm 0.00 in0.0 mm
07:05 PM 52.4°F11.3°C 29.4°F-1.4°C 41% 2.3 mph SE3.7 kmh SE 3.5 mph5.6 kmh 30.37 in1028.4 mb - 0.00 in0.0 mm 0.00 in0.0 mm
07:10 PM 52.2°F11.2°C 29.8°F-1.2°C 42% 2.3 mph SE3.7 kmh SE 3.5 mph5.6 kmh 30.37 in1028.4 mb - 0.00 in0.0 mm 0.00 in0.0 mm
07:15 PM 52.0°F11.1°C 29.6°F-1.3°C 42% 2.3 mph SE3.7 kmh SE 3.5 mph5.6 kmh 30.38 in1028.8 mb - 0.00 in0.0 mm 0.00 in0.0 mm
07:20 PM 51.9°F11.1°C 29.5°F-1.4°C 42% 1.2 mph SE1.9 kmh SE 3.5 mph5.6 kmh 30.38 in1028.8 mb - 0.00 in0.0 mm 0.00 in0.0 mm
07:25 PM 51.7°F10.9°C 29.3°F-1.5°C 42% 1.2 mph SE1.9 kmh SE 2.3 mph3.7 kmh 30.38 in1028.8 mb - 0.00 in0.0 mm 0.00 in0.0 mm
07:30 PM 51.5°F10.8°C 29.1°F-1.6°C 42% 2.3 mph SE3.7 kmh SE 3.5 mph5.6 kmh 30.38 in1028.8 mb - 0.00 in0.0 mm 0.00 in0.0 mm
07:35 PM 51.4°F10.8°C 29.1°F-1.6°C 42% 4.6 mph SE7.4 kmh SE 8.1 mph13.0 kmh 30.38 in1028.8 mb - 0.00 in0.0 mm 0.00 in0.0 mm
07:40 PM 51.5°F10.8°C 29.1°F-1.6°C 42% 3.5 mph SE5.6 kmh SE 3.5 mph5.6 kmh 30.39 in1029.1 mb - 0.00 in0.0 mm 0.00 in0.0 mm
07:45 PM 51.4°F10.8°C 29.0°F-1.7°C 42% 2.3 mph SE3.7 kmh SE 3.5 mph5.6 kmh 30.39 in1029.1 mb - 0.00 in0.0 mm 0.00 in0.0 mm
07:50 PM 51.2°F10.7°C 29.4°F-1.4°C 43% 3.5 mph SE5.6 kmh SE 3.5 mph5.6 kmh 30.39 in1029.1 mb - 0.00 in0.0 mm 0.00 in0.0 mm
07:55 PM 50.9°F10.5°C 29.7°F-1.3°C 44% 3.5 mph SE5.6 kmh SE 3.5 mph5.6 kmh 30.39 in1029.1 mb - 0.00 in0.0 mm 0.00 in0.0 mm
08:00 PM 50.6°F10.3°C 29.5°F-1.4°C 44% 3.5 mph SE5.6 kmh SE 5.8 mph9.3 kmh 30.39 in1029.1 mb - 0.00 in0.0 mm 0.00 in0.0 mm
08:05 PM 50.3°F10.2°C 29.8°F-1.2°C 45% 4.6 mph SE7.4 kmh SE 8.1 mph13.0 kmh 30.39 in1029.1 mb - 0.00 in0.0 mm 0.00 in0.0 mm
08:10 PM 50.2°F10.1°C 29.6°F-1.3°C 45% 3.5 mph SE5.6 kmh SE 3.5 mph5.6 kmh 30.39 in1029.1 mb - 0.00 in0.0 mm 0.00 in0.0 mm
08:15 PM 50.0°F10.0°C 30.0°F-1.1°C 46% 2.3 mph SE3.7 kmh SE 4.6 mph7.4 kmh 30.40 in1029.5 mb - 0.00 in0.0 mm 0.00 in0.0 mm
08:20 PM 49.7°F9.8°C 29.8°F-1.2°C 46% 3.5 mph SE5.6 kmh SE 4.6 mph7.4 kmh 30.40 in1029.5 mb - 0.00 in0.0 mm 0.00 in0.0 mm
08:25 PM 49.6°F9.8°C 29.6°F-1.3°C 46% 3.5 mph SE5.6 kmh SE 5.8 mph9.3 kmh 30.40 in1029.5 mb - 0.00 in0.0 mm 0.00 in0.0 mm
08:30 PM 49.5°F9.7°C 29.5°F-1.4°C 46% 4.6 mph SE7.4 kmh SE 5.8 mph9.3 kmh 30.41 in1029.8 mb - 0.00 in0.0 mm 0.00 in0.0 mm
08:35 PM 49.3°F9.6°C 29.9°F-1.2°C 47% 2.3 mph SE3.7 kmh SE 4.6 mph7.4 kmh 30.41 in1029.8 mb - 0.00 in0.0 mm 0.00 in0.0 mm
08:40 PM 49.2°F9.6°C 29.8°F-1.2°C 47% 3.5 mph SE5.6 kmh SE 3.5 mph5.6 kmh 30.41 in1029.8 mb - 0.00 in0.0 mm 0.00 in0.0 mm
08:45 PM 49.0°F9.4°C 29.6°F-1.3°C 47% 2.3 mph SE3.7 kmh SE 3.5 mph5.6 kmh 30.41 in1029.8 mb - 0.00 in0.0 mm 0.00 in0.0 mm
08:50 PM 48.8°F9.3°C 30.0°F-1.1°C 48% 3.5 mph SE5.6 kmh SE 3.5 mph5.6 kmh 30.41 in1029.8 mb - 0.00 in0.0 mm 0.00 in0.0 mm
08:55 PM 48.6°F9.2°C 29.8°F-1.2°C 48% 3.5 mph SE5.6 kmh SE 4.6 mph7.4 kmh 30.41 in1029.8 mb - 0.00 in0.0 mm 0.00 in0.0 mm
09:00 PM 48.5°F9.2°C 29.7°F-1.3°C 48% 3.5 mph SE5.6 kmh SE 4.6 mph7.4 kmh 30.41 in1029.8 mb - 0.00 in0.0 mm 0.00 in0.0 mm
09:05 PM 48.4°F9.1°C 29.6°F-1.3°C 48% 2.3 mph SE3.7 kmh SE 3.5 mph5.6 kmh 30.41 in1029.8 mb - 0.00 in0.0 mm 0.00 in0.0 mm
09:10 PM 48.3°F9.1°C 29.5°F-1.4°C 48% 3.5 mph SE5.6 kmh SE 5.8 mph9.3 kmh 30.42 in1030.1 mb - 0.00 in0.0 mm 0.00 in0.0 mm
09:15 PM 48.1°F8.9°C 29.3°F-1.5°C 48% 2.3 mph SE3.7 kmh SE 3.5 mph5.6 kmh 30.42 in1030.1 mb - 0.00 in0.0 mm 0.00 in0.0 mm
09:20 PM 47.9°F8.8°C 29.6°F-1.3°C 49% 2.3 mph SE3.7 kmh SE 3.5 mph5.6 kmh 30.42 in1030.1 mb - 0.00 in0.0 mm 0.00 in0.0 mm
09:25 PM 47.7°F8.7°C 29.5°F-1.4°C 49% 3.5 mph SE5.6 kmh SE 3.5 mph5.6 kmh 30.42 in1030.1 mb - 0.00 in0.0 mm 0.00 in0.0 mm
09:30 PM 47.5°F8.6°C 29.8°F-1.2°C 50% 2.3 mph SE3.7 kmh SE 3.5 mph5.6 kmh 30.43 in1030.5 mb - 0.00 in0.0 mm 0.00 in0.0 mm
09:35 PM 47.3°F8.5°C 29.6°F-1.3°C 50% 2.3 mph SE3.7 kmh SE 3.5 mph5.6 kmh 30.43 in1030.5 mb - 0.00 in0.0 mm 0.00 in0.0 mm
09:40 PM 47.3°F8.5°C 29.6°F-1.3°C 50% 2.3 mph SE3.7 kmh SE 3.5 mph5.6 kmh 30.43 in1030.5 mb - 0.00 in0.0 mm 0.00 in0.0 mm
09:45 PM 47.2°F8.4°C 29.5°F-1.4°C 50% 2.3 mph SE3.7 kmh SE 3.5 mph5.6 kmh 30.43 in1030.5 mb - 0.00 in0.0 mm 0.00 in0.0 mm
09:50 PM 47.1°F8.4°C 29.4°F-1.4°C 50% 2.3 mph SE3.7 kmh SE 2.3 mph3.7 kmh 30.43 in1030.5 mb - 0.00 in0.0 mm 0.00 in0.0 mm
09:55 PM 46.9°F8.3°C 29.2°F-1.6°C 50% 2.3 mph SE3.7 kmh SE 3.5 mph5.6 kmh 30.43 in1030.5 mb - 0.00 in0.0 mm 0.00 in0.0 mm
10:00 PM 46.7°F8.2°C 29.5°F-1.4°C 51% 2.3 mph SE3.7 kmh SE 3.5 mph5.6 kmh 30.43 in1030.5 mb - 0.00 in0.0 mm 0.00 in0.0 mm
10:05 PM 46.6°F8.1°C 29.4°F-1.4°C 51% 1.2 mph SE1.9 kmh SE 3.5 mph5.6 kmh 30.43 in1030.5 mb - 0.00 in0.0 mm 0.00 in0.0 mm
10:10 PM 46.5°F8.1°C 29.3°F-1.5°C 51% 2.3 mph SE3.7 kmh SE 2.3 mph3.7 kmh 30.43 in1030.5 mb - 0.00 in0.0 mm 0.00 in0.0 mm
10:15 PM 46.3°F7.9°C 29.1°F-1.6°C 51% 1.2 mph SE1.9 kmh SE 3.5 mph5.6 kmh 30.43 in1030.5 mb - 0.00 in0.0 mm 0.00 in0.0 mm
10:20 PM 46.2°F7.9°C 29.1°F-1.6°C 51% 1.2 mph SE1.9 kmh SE 2.3 mph3.7 kmh 30.44 in1030.8 mb - 0.00 in0.0 mm 0.00 in0.0 mm
10:25 PM 46.0°F7.8°C 29.3°F-1.5°C 52% 2.3 mph SE3.7 kmh SE 2.3 mph3.7 kmh 30.44 in1030.8 mb - 0.00 in0.0 mm 0.00 in0.0 mm
10:30 PM 45.9°F7.7°C 29.2°F-1.6°C 52% 2.3 mph SE3.7 kmh SE 3.5 mph5.6 kmh 30.44 in1030.8 mb - 0.00 in0.0 mm 0.00 in0.0 mm
10:35 PM 45.8°F7.7°C 29.2°F-1.6°C 52% 1.2 mph SE1.9 kmh SE 2.3 mph3.7 kmh 30.44 in1030.8 mb - 0.00 in0.0 mm 0.00 in0.0 mm
10:40 PM 45.7°F7.6°C 29.1°F-1.6°C 52% 2.3 mph SE3.7 kmh SE 3.5 mph5.6 kmh 30.44 in1030.8 mb - 0.00 in0.0 mm 0.00 in0.0 mm
10:45 PM 45.5°F7.5°C 28.9°F-1.7°C 52% 1.2 mph SE1.9 kmh SE 2.3 mph3.7 kmh 30.45 in1031.2 mb - 0.00 in0.0 mm 0.00 in0.0 mm
10:50 PM 45.2°F7.3°C 29.1°F-1.6°C 53% 1.2 mph SE1.9 kmh SE 2.3 mph3.7 kmh 30.45 in1031.2 mb - 0.00 in0.0 mm 0.00 in0.0 mm
10:55 PM 45.0°F7.2°C 29.3°F-1.5°C 54% 1.2 mph SE1.9 kmh SE 2.3 mph3.7 kmh 30.45 in1031.2 mb - 0.00 in0.0 mm 0.00 in0.0 mm
11:00 PM 44.6°F7.0°C 29.9°F-1.2°C 56% 1.2 mph SE1.9 kmh SE 2.3 mph3.7 kmh 30.45 in1031.2 mb - 0.00 in0.0 mm 0.00 in0.0 mm
11:05 PM 44.2°F6.8°C 30.3°F-0.9°C 58% 2.3 mph SE3.7 kmh SE 2.3 mph3.7 kmh 30.45 in1031.2 mb - 0.00 in0.0 mm 0.00 in0.0 mm
11:10 PM 43.8°F6.6°C 30.0°F-1.1°C 58% 2.3 mph SE3.7 kmh SE 2.3 mph3.7 kmh 30.45 in1031.2 mb - 0.00 in0.0 mm 0.00 in0.0 mm
11:15 PM 43.6°F6.4°C 30.6°F-0.8°C 60% 1.2 mph SE1.9 kmh SE 2.3 mph3.7 kmh 30.45 in1031.2 mb - 0.00 in0.0 mm 0.00 in0.0 mm
11:20 PM 43.3°F6.3°C 30.3°F-0.9°C 60% 1.2 mph SE1.9 kmh SE 2.3 mph3.7 kmh 30.45 in1031.2 mb - 0.00 in0.0 mm 0.00 in0.0 mm
11:25 PM 43.1°F6.2°C 29.7°F-1.3°C 59% 1.2 mph SE1.9 kmh SE 2.3 mph3.7 kmh 30.45 in1031.2 mb - 0.00 in0.0 mm 0.00 in0.0 mm
11:30 PM 42.9°F6.1°C 30.0°F-1.1°C 60% 1.2 mph SE1.9 kmh SE 2.3 mph3.7 kmh 30.45 in1031.2 mb - 0.00 in0.0 mm 0.00 in0.0 mm
11:35 PM 42.6°F5.9°C 29.7°F-1.3°C 60% 1.2 mph SE1.9 kmh SE 2.3 mph3.7 kmh 30.45 in1031.2 mb - 0.00 in0.0 mm 0.00 in0.0 mm
11:40 PM 42.5°F5.8°C 30.0°F-1.1°C 61% 2.3 mph SE3.7 kmh SE 2.3 mph3.7 kmh 30.45 in1031.2 mb - 0.00 in0.0 mm 0.00 in0.0 mm
11:45 PM 42.4°F5.8°C 30.3°F-0.9°C 62% 2.3 mph SE3.7 kmh SE 2.3 mph3.7 kmh 30.45 in1031.2 mb - 0.00 in0.0 mm 0.00 in0.0 mm
11:50 PM 42.1°F5.6°C 30.8°F-0.7°C 64% 2.3 mph SE3.7 kmh SE 2.3 mph3.7 kmh 30.45 in1031.2 mb - 0.00 in0.0 mm 0.00 in0.0 mm
11:55 PM 41.9°F5.5°C 31.4°F-0.3°C 66% 2.3 mph SE3.7 kmh SE 3.5 mph5.6 kmh 30.45 in1031.2 mb - 0.00 in0.0 mm 0.00 in0.0 mm